AAL2295 KMCO-KMIA
Flight info
| Callsign | AAL2295 |
|---|---|
| Flight time | 0h 39m |
| Altitude | 23000 |
| Route | DDANY3 DDANY CSTAL3 |
| Aircraft | A21N/M-SDE2E3FGHIRWXY/LB1 |
Departure
| Time | 2026-05-05 19:55 |
|---|---|
| Airport | Orlando International Airport (KMCO) |
Arrival
| Time | 2026-05-05 20:35 |
|---|---|
| Airport | Miami International Airport (KMIA) |
| Time | Latitude | Longitude | Altitude | Speed | Heading |
|---|---|---|---|---|---|
| 2026-05-05 19:33 | 28.42764 | -81.31507 | 98 ft | 0 kts | 54° |
| 2026-05-05 19:43 | 28.42762 | -81.31510 | 102 ft | 3 kts | 54° |
| 2026-05-05 19:44 | 28.42748 | -81.31535 | 99 ft | 4 kts | 63° |
| 2026-05-05 19:44 | 28.42738 | -81.31561 | 99 ft | 4 kts | 71° |
| 2026-05-05 19:44 | 28.42730 | -81.31592 | 100 ft | 4 kts | 78° |
| 2026-05-05 19:44 | 28.42725 | -81.31618 | 100 ft | 2 kts | 76° |
| 2026-05-05 19:45 | 28.42723 | -81.31641 | 100 ft | 4 kts | 107° |
| 2026-05-05 19:45 | 28.42738 | -81.31660 | 100 ft | 4 kts | 158° |
| 2026-05-05 19:45 | 28.42754 | -81.31666 | 99 ft | 1 kts | 167° |
| 2026-05-05 19:45 | 28.42756 | -81.31666 | 99 ft | 5 kts | 167° |
| 2026-05-05 19:47 | 28.42740 | -81.31662 | 99 ft | 4 kts | 168° |
| 2026-05-05 19:47 | 28.42706 | -81.31654 | 100 ft | 6 kts | 168° |
| 2026-05-05 19:48 | 28.42649 | -81.31639 | 102 ft | 10 kts | 167° |
| 2026-05-05 19:48 | 28.42581 | -81.31622 | 102 ft | 12 kts | 167° |
| 2026-05-05 19:48 | 28.42524 | -81.31611 | 102 ft | 14 kts | 177° |
| 2026-05-05 19:49 | 28.42408 | -81.31662 | 105 ft | 19 kts | 200° |
| 2026-05-05 19:49 | 28.42319 | -81.31668 | 104 ft | 20 kts | 175° |
| 2026-05-05 19:49 | 28.42267 | -81.31521 | 102 ft | 18 kts | 89° |
| 2026-05-05 19:49 | 28.42269 | -81.31373 | 100 ft | 20 kts | 90° |
| 2026-05-05 19:50 | 28.42263 | -81.31212 | 100 ft | 21 kts | 100° |
| 2026-05-05 19:50 | 28.42236 | -81.31040 | 100 ft | 23 kts | 98° |
| 2026-05-05 19:50 | 28.42241 | -81.30860 | 100 ft | 22 kts | 85° |
| 2026-05-05 19:50 | 28.42254 | -81.30677 | 102 ft | 24 kts | 86° |
| 2026-05-05 19:51 | 28.42268 | -81.30478 | 100 ft | 26 kts | 85° |
| 2026-05-05 19:51 | 28.42276 | -81.30267 | 100 ft | 28 kts | 90° |
| 2026-05-05 19:51 | 28.42278 | -81.30041 | 100 ft | 29 kts | 89° |
| 2026-05-05 19:51 | 28.42277 | -81.29852 | 100 ft | 22 kts | 109° |
| 2026-05-05 19:52 | 28.42143 | -81.29793 | 102 ft | 24 kts | 180° |
| 2026-05-05 19:52 | 28.41972 | -81.29790 | 102 ft | 26 kts | 179° |
| 2026-05-05 19:52 | 28.41781 | -81.29788 | 101 ft | 30 kts | 179° |
| 2026-05-05 19:52 | 28.41565 | -81.29786 | 101 ft | 32 kts | 179° |
| 2026-05-05 19:53 | 28.41338 | -81.29784 | 100 ft | 33 kts | 180° |
| 2026-05-05 19:53 | 28.41099 | -81.29782 | 101 ft | 35 kts | 179° |
| 2026-05-05 19:53 | 28.40982 | -81.29781 | 101 ft | 8 kts | 179° |
| 2026-05-05 19:53 | 28.40931 | -81.29741 | 100 ft | 11 kts | 108° |
| 2026-05-05 19:54 | 28.40928 | -81.29648 | 99 ft | 13 kts | 87° |
| 2026-05-05 19:54 | 28.40972 | -81.29561 | 99 ft | 15 kts | 10° |
| 2026-05-05 19:54 | 28.40988 | -81.29559 | 99 ft | 1 kts | 358° |
| 2026-05-05 19:54 | 28.41236 | -81.29566 | 101 ft | 75 kts | 0° |
| 2026-05-05 19:55 | 28.41744 | -81.29568 | 103 ft | 120 kts | 2° |
| 2026-05-05 19:55 | 28.42570 | -81.29561 | 101 ft | 166 kts | 359° |
| 2026-05-05 19:55 | 28.43203 | -81.29573 | 231 ft | 177 kts | 1° |
| 2026-05-05 19:55 | 28.44467 | -81.29593 | 837 ft | 183 kts | 0° |
| 2026-05-05 19:56 | 28.45728 | -81.29596 | 1687 ft | 182 kts | 6° |
| 2026-05-05 19:56 | 28.46814 | -81.28915 | 2481 ft | 185 kts | 52° |
| 2026-05-05 19:56 | 28.47238 | -81.27545 | 3435 ft | 187 kts | 82° |
| 2026-05-05 19:56 | 28.47569 | -81.26109 | 4400 ft | 191 kts | 63° |
| 2026-05-05 19:57 | 28.48318 | -81.24846 | 5217 ft | 194 kts | 53° |
| 2026-05-05 19:57 | 28.48872 | -81.24005 | 5556 ft | 212 kts | 53° |
| 2026-05-05 19:57 | 28.50108 | -81.22140 | 5875 ft | 225 kts | 53° |
| 2026-05-05 19:57 | 28.51009 | -81.20481 | 5980 ft | 269 kts | 72° |
| 2026-05-05 19:58 | 28.51334 | -81.18365 | 6039 ft | 279 kts | 84° |
| 2026-05-05 19:58 | 28.51542 | -81.16173 | 6031 ft | 279 kts | 85° |
| 2026-05-05 19:58 | 28.51248 | -81.14024 | 6151 ft | 278 kts | 111° |
| 2026-05-05 19:58 | 28.50517 | -81.11950 | 6991 ft | 286 kts | 112° |
| 2026-05-05 19:59 | 28.49835 | -81.09804 | 7947 ft | 291 kts | 109° |
| 2026-05-05 19:59 | 28.49215 | -81.07584 | 8888 ft | 298 kts | 108° |
| 2026-05-05 19:59 | 28.48627 | -81.05294 | 9820 ft | 306 kts | 107° |
| 2026-05-05 19:59 | 28.47939 | -81.03013 | 10488 ft | 296 kts | 120° |
| 2026-05-05 20:00 | 28.46543 | -81.01289 | 10773 ft | 306 kts | 152° |
| 2026-05-05 20:00 | 28.44626 | -81.00188 | 11542 ft | 312 kts | 158° |
| 2026-05-05 20:00 | 28.42685 | -80.99013 | 12377 ft | 321 kts | 152° |
| 2026-05-05 20:00 | 28.40791 | -80.97608 | 13200 ft | 329 kts | 148° |
| 2026-05-05 20:01 | 28.38924 | -80.96065 | 14009 ft | 335 kts | 145° |
| 2026-05-05 20:01 | 28.37061 | -80.94439 | 14772 ft | 340 kts | 144° |
| 2026-05-05 20:01 | 28.35192 | -80.92771 | 15528 ft | 344 kts | 144° |
| 2026-05-05 20:01 | 28.33305 | -80.91070 | 16280 ft | 345 kts | 143° |
| 2026-05-05 20:02 | 28.31400 | -80.89344 | 16982 ft | 353 kts | 143° |
| 2026-05-05 20:02 | 28.29472 | -80.87553 | 17596 ft | 365 kts | 139° |
| 2026-05-05 20:02 | 28.27753 | -80.85343 | 17947 ft | 384 kts | 123° |
| 2026-05-05 20:02 | 28.26524 | -80.82583 | 18262 ft | 401 kts | 111° |
| 2026-05-05 20:03 | 28.25473 | -80.79579 | 18527 ft | 418 kts | 110° |
| 2026-05-05 20:03 | 28.24400 | -80.76452 | 18812 ft | 432 kts | 110° |
| 2026-05-05 20:03 | 28.23242 | -80.73282 | 19310 ft | 438 kts | 115° |
| 2026-05-05 20:03 | 28.21650 | -80.70315 | 19836 ft | 443 kts | 128° |
| 2026-05-05 20:04 | 28.19498 | -80.67805 | 20355 ft | 446 kts | 143° |
| 2026-05-05 20:04 | 28.16928 | -80.65939 | 20880 ft | 446 kts | 157° |
| 2026-05-05 20:04 | 28.14031 | -80.64705 | 21420 ft | 446 kts | 167° |
| 2026-05-05 20:04 | 28.11041 | -80.63708 | 21961 ft | 450 kts | 168° |
| 2026-05-05 20:05 | 28.08030 | -80.62717 | 22608 ft | 452 kts | 168° |
| 2026-05-05 20:05 | 28.05016 | -80.61702 | 23321 ft | 452 kts | 168° |
| 2026-05-05 20:05 | 28.02007 | -80.60673 | 23923 ft | 452 kts | 168° |
| 2026-05-05 20:05 | 27.99001 | -80.59638 | 24463 ft | 452 kts | 168° |
| 2026-05-05 20:06 | 27.95981 | -80.58598 | 24889 ft | 454 kts | 168° |
| 2026-05-05 20:06 | 27.92960 | -80.57558 | 25058 ft | 453 kts | 168° |
| 2026-05-05 20:06 | 27.89921 | -80.56682 | 25090 ft | 449 kts | 173° |
| 2026-05-05 20:06 | 27.86869 | -80.55921 | 25091 ft | 446 kts | 173° |
| 2026-05-05 20:07 | 27.83903 | -80.55188 | 25074 ft | 433 kts | 173° |
| 2026-05-05 20:07 | 27.81925 | -80.54705 | 25075 ft | 444 kts | 173° |
| 2026-05-05 20:07 | 27.77898 | -80.53718 | 25078 ft | 448 kts | 173° |
| 2026-05-05 20:07 | 27.74857 | -80.52966 | 25074 ft | 448 kts | 173° |
| 2026-05-05 20:08 | 27.71816 | -80.52214 | 25061 ft | 448 kts | 173° |
| 2026-05-05 20:08 | 27.68769 | -80.51461 | 25067 ft | 448 kts | 173° |
| 2026-05-05 20:08 | 27.65734 | -80.50659 | 25066 ft | 450 kts | 169° |
| 2026-05-05 20:08 | 27.63749 | -80.49943 | 25069 ft | 453 kts | 166° |
| 2026-05-05 20:09 | 27.60218 | -80.48544 | 25069 ft | 450 kts | 165° |
| 2026-05-05 20:09 | 27.59496 | -80.48255 | 25070 ft | 452 kts | 165° |
| 2026-05-05 20:09 | 27.56531 | -80.47068 | 25071 ft | 453 kts | 165° |
| 2026-05-05 20:09 | 27.53556 | -80.45881 | 25072 ft | 454 kts | 165° |
| 2026-05-05 20:10 | 27.50575 | -80.44697 | 25070 ft | 454 kts | 165° |
| 2026-05-05 20:10 | 27.47598 | -80.43518 | 25072 ft | 454 kts | 166° |
| 2026-05-05 20:10 | 27.44620 | -80.42340 | 25071 ft | 454 kts | 165° |
| 2026-05-05 20:10 | 27.41643 | -80.41164 | 25068 ft | 454 kts | 166° |
| 2026-05-05 20:11 | 27.38662 | -80.39987 | 25066 ft | 454 kts | 166° |
| 2026-05-05 20:11 | 27.35681 | -80.38808 | 25062 ft | 454 kts | 166° |
| 2026-05-05 20:11 | 27.32707 | -80.37633 | 25059 ft | 454 kts | 166° |
| 2026-05-05 20:11 | 27.29721 | -80.36456 | 25058 ft | 454 kts | 166° |
| 2026-05-05 20:12 | 27.26741 | -80.35280 | 25056 ft | 454 kts | 166° |
| 2026-05-05 20:12 | 27.23760 | -80.34105 | 25052 ft | 454 kts | 166° |
| 2026-05-05 20:12 | 27.20784 | -80.32932 | 25052 ft | 454 kts | 166° |
| 2026-05-05 20:12 | 27.17801 | -80.31767 | 25052 ft | 454 kts | 166° |
| 2026-05-05 20:13 | 27.14813 | -80.30610 | 25053 ft | 460 kts | 166° |
| 2026-05-05 20:13 | 27.11741 | -80.29424 | 25044 ft | 466 kts | 165° |
| 2026-05-05 20:13 | 27.08675 | -80.28233 | 25051 ft | 467 kts | 165° |
| 2026-05-05 20:13 | 27.05609 | -80.27041 | 25054 ft | 467 kts | 165° |
| 2026-05-05 20:14 | 27.02541 | -80.25851 | 25056 ft | 467 kts | 165° |
| 2026-05-05 20:14 | 26.99468 | -80.24660 | 25054 ft | 465 kts | 165° |
| 2026-05-05 20:14 | 26.96501 | -80.23506 | 25050 ft | 454 kts | 166° |
| 2026-05-05 20:14 | 26.93526 | -80.22353 | 25054 ft | 453 kts | 166° |
| 2026-05-05 20:15 | 26.90573 | -80.21210 | 24819 ft | 445 kts | 166° |
| 2026-05-05 20:15 | 26.87627 | -80.20073 | 23874 ft | 452 kts | 166° |
| 2026-05-05 20:15 | 26.84612 | -80.18923 | 22667 ft | 463 kts | 166° |
| 2026-05-05 20:15 | 26.81561 | -80.17791 | 21874 ft | 460 kts | 165° |
| 2026-05-05 20:16 | 26.78536 | -80.16674 | 21208 ft | 455 kts | 165° |
| 2026-05-05 20:16 | 26.75548 | -80.15569 | 20582 ft | 450 kts | 165° |
| 2026-05-05 20:16 | 26.72593 | -80.14474 | 19962 ft | 444 kts | 165° |
| 2026-05-05 20:16 | 26.69657 | -80.13532 | 19473 ft | 434 kts | 170° |
| 2026-05-05 20:17 | 26.66766 | -80.12747 | 19165 ft | 421 kts | 170° |
| 2026-05-05 20:17 | 26.63960 | -80.11985 | 18932 ft | 408 kts | 170° |
| 2026-05-05 20:17 | 26.61237 | -80.11247 | 18529 ft | 401 kts | 170° |
| 2026-05-05 20:17 | 26.58531 | -80.10524 | 17932 ft | 398 kts | 171° |
| 2026-05-05 20:18 | 26.55846 | -80.09853 | 17391 ft | 394 kts | 171° |
| 2026-05-05 20:18 | 26.53185 | -80.09198 | 16857 ft | 390 kts | 171° |
| 2026-05-05 20:18 | 26.50555 | -80.08548 | 16372 ft | 384 kts | 171° |
| 2026-05-05 20:18 | 26.47953 | -80.07902 | 15819 ft | 382 kts | 171° |
| 2026-05-05 20:19 | 26.45371 | -80.07285 | 15313 ft | 378 kts | 172° |
| 2026-05-05 20:19 | 26.42806 | -80.06735 | 14845 ft | 374 kts | 173° |
| 2026-05-05 20:19 | 26.40260 | -80.06198 | 14379 ft | 370 kts | 172° |
| 2026-05-05 20:19 | 26.37754 | -80.05572 | 13882 ft | 368 kts | 169° |
| 2026-05-05 20:20 | 26.35290 | -80.04896 | 13558 ft | 360 kts | 169° |
| 2026-05-05 20:20 | 26.32904 | -80.04234 | 13346 ft | 348 kts | 169° |
| 2026-05-05 20:20 | 26.30597 | -80.03599 | 13164 ft | 335 kts | 169° |
| 2026-05-05 20:20 | 26.28400 | -80.02996 | 13000 ft | 324 kts | 169° |
| 2026-05-05 20:21 | 26.26222 | -80.02431 | 12610 ft | 320 kts | 174° |
| 2026-05-05 20:21 | 26.24043 | -80.02435 | 12205 ft | 310 kts | 193° |
| 2026-05-05 20:21 | 26.21957 | -80.02913 | 11822 ft | 304 kts | 200° |
| 2026-05-05 20:21 | 26.20059 | -80.03937 | 11150 ft | 306 kts | 217° |
| 2026-05-05 20:22 | 26.18328 | -80.05292 | 10800 ft | 301 kts | 219° |
| 2026-05-05 20:22 | 26.16654 | -80.06631 | 10621 ft | 291 kts | 218° |
| 2026-05-05 20:22 | 26.15026 | -80.07912 | 10433 ft | 284 kts | 218° |
| 2026-05-05 20:22 | 26.13422 | -80.09164 | 10244 ft | 279 kts | 218° |
| 2026-05-05 20:23 | 26.11840 | -80.10389 | 10024 ft | 276 kts | 218° |
| 2026-05-05 20:23 | 26.10265 | -80.11607 | 9714 ft | 276 kts | 218° |
| 2026-05-05 20:23 | 26.08686 | -80.12825 | 9390 ft | 276 kts | 217° |
| 2026-05-05 20:23 | 26.07108 | -80.14040 | 9067 ft | 276 kts | 217° |
| 2026-05-05 20:24 | 26.05531 | -80.15253 | 8753 ft | 275 kts | 217° |
| 2026-05-05 20:24 | 26.03956 | -80.16464 | 8452 ft | 275 kts | 217° |
| 2026-05-05 20:24 | 26.02384 | -80.17669 | 8147 ft | 274 kts | 217° |
| 2026-05-05 20:24 | 26.00817 | -80.18873 | 7846 ft | 273 kts | 217° |
| 2026-05-05 20:25 | 25.99253 | -80.20069 | 7556 ft | 273 kts | 217° |
| 2026-05-05 20:25 | 25.97691 | -80.21262 | 7274 ft | 272 kts | 217° |
| 2026-05-05 20:25 | 25.96131 | -80.22454 | 6973 ft | 272 kts | 217° |
| 2026-05-05 20:25 | 25.94597 | -80.23625 | 6775 ft | 262 kts | 217° |
| 2026-05-05 20:26 | 25.93123 | -80.24752 | 6526 ft | 254 kts | 217° |
| 2026-05-05 20:26 | 25.91688 | -80.25851 | 6256 ft | 246 kts | 216° |
| 2026-05-05 20:26 | 25.90347 | -80.26890 | 6142 ft | 227 kts | 218° |
| 2026-05-05 20:26 | 25.89245 | -80.28129 | 5961 ft | 226 kts | 233° |
| 2026-05-05 20:27 | 25.88614 | -80.29697 | 5945 ft | 224 kts | 260° |
| 2026-05-05 20:27 | 25.88779 | -80.31375 | 5665 ft | 220 kts | 288° |
| 2026-05-05 20:27 | 25.89467 | -80.32850 | 5439 ft | 209 kts | 298° |
| 2026-05-05 20:27 | 25.90157 | -80.34225 | 5247 ft | 200 kts | 298° |
| 2026-05-05 20:28 | 25.90819 | -80.35566 | 4939 ft | 197 kts | 298° |
| 2026-05-05 20:28 | 25.91474 | -80.36911 | 4610 ft | 198 kts | 298° |
| 2026-05-05 20:28 | 25.92127 | -80.38258 | 4337 ft | 199 kts | 298° |
| 2026-05-05 20:28 | 25.92781 | -80.39601 | 4093 ft | 196 kts | 298° |
| 2026-05-05 20:29 | 25.93410 | -80.40892 | 3982 ft | 185 kts | 298° |
| 2026-05-05 20:29 | 25.93845 | -80.42243 | 3971 ft | 190 kts | 278° |
| 2026-05-05 20:29 | 25.93714 | -80.43669 | 3991 ft | 189 kts | 255° |
| 2026-05-05 20:29 | 25.93291 | -80.45058 | 4015 ft | 190 kts | 253° |
| 2026-05-05 20:30 | 25.92868 | -80.46448 | 4029 ft | 189 kts | 252° |
| 2026-05-05 20:30 | 25.92410 | -80.47808 | 3983 ft | 190 kts | 244° |
| 2026-05-05 20:30 | 25.91414 | -80.48785 | 3738 ft | 200 kts | 202° |
| 2026-05-05 20:30 | 25.90024 | -80.48767 | 3611 ft | 208 kts | 160° |
| 2026-05-05 20:31 | 25.88920 | -80.47776 | 3440 ft | 206 kts | 128° |
| 2026-05-05 20:31 | 25.88162 | -80.46422 | 3208 ft | 207 kts | 116° |
| 2026-05-05 20:31 | 25.87465 | -80.45021 | 2933 ft | 206 kts | 118° |
| 2026-05-05 20:31 | 25.86768 | -80.43642 | 2658 ft | 203 kts | 118° |
| 2026-05-05 20:32 | 25.86082 | -80.42293 | 2378 ft | 198 kts | 117° |
| 2026-05-05 20:32 | 25.85411 | -80.40972 | 2125 ft | 194 kts | 118° |
| 2026-05-05 20:32 | 25.84774 | -80.39720 | 1907 ft | 178 kts | 117° |
| 2026-05-05 20:32 | 25.84186 | -80.38567 | 1670 ft | 165 kts | 116° |
| 2026-05-05 20:33 | 25.83625 | -80.37462 | 1463 ft | 165 kts | 117° |
| 2026-05-05 20:33 | 25.83063 | -80.36357 | 1253 ft | 163 kts | 117° |
| 2026-05-05 20:33 | 25.82507 | -80.35265 | 1036 ft | 162 kts | 118° |
| 2026-05-05 20:33 | 25.81966 | -80.34206 | 815 ft | 151 kts | 117° |
| 2026-05-05 20:34 | 25.81494 | -80.33276 | 633 ft | 134 kts | 119° |
| 2026-05-05 20:34 | 25.81032 | -80.32388 | 497 ft | 132 kts | 120° |
| 2026-05-05 20:34 | 25.80571 | -80.31516 | 327 ft | 131 kts | 119° |
| 2026-05-05 20:34 | 25.80124 | -80.30640 | 160 ft | 129 kts | 116° |
| 2026-05-05 20:35 | 25.79690 | -80.29783 | 24 ft | 122 kts | 116° |
| 2026-05-05 20:35 | 25.79340 | -80.29087 | 19 ft | 79 kts | 118° |
| 2026-05-05 20:35 | 25.79152 | -80.28718 | 19 ft | 34 kts | 118° |
| 2026-05-05 20:35 | 25.79112 | -80.28625 | 19 ft | 6 kts | 107° |
| 2026-05-05 20:36 | 25.79100 | -80.28558 | 19 ft | 12 kts | 94° |
| 2026-05-05 20:36 | 25.79112 | -80.28470 | 20 ft | 9 kts | 64° |
| 2026-05-05 20:36 | 25.79114 | -80.28465 | 21 ft | 1 kts | 62° |
| 2026-05-05 20:36 | 25.79119 | -80.28457 | 22 ft | 4 kts | 56° |
| 2026-05-05 20:37 | 25.79147 | -80.28427 | 20 ft | 7 kts | 41° |
| 2026-05-05 20:37 | 25.79203 | -80.28408 | 20 ft | 10 kts | 348° |
| 2026-05-05 20:37 | 25.79252 | -80.28477 | 20 ft | 13 kts | 297° |
| 2026-05-05 20:37 | 25.79304 | -80.28571 | 20 ft | 16 kts | 300° |
| 2026-05-05 20:38 | 25.79362 | -80.28684 | 20 ft | 18 kts | 297° |
| 2026-05-05 20:38 | 25.79425 | -80.28802 | 20 ft | 8 kts | 329° |
| 2026-05-05 20:38 | 25.79510 | -80.28806 | 20 ft | 20 kts | 358° |
| 2026-05-05 20:38 | 25.79657 | -80.28813 | 20 ft | 22 kts | 358° |
| 2026-05-05 20:39 | 25.79820 | -80.28819 | 21 ft | 24 kts | 356° |
| 2026-05-05 20:39 | 25.79940 | -80.28738 | 21 ft | 26 kts | 98° |
| 2026-05-05 20:39 | 25.79945 | -80.28528 | 20 ft | 28 kts | 88° |
| 2026-05-05 20:39 | 25.79950 | -80.28349 | 20 ft | 10 kts | 88° |
| 2026-05-05 20:40 | 25.79915 | -80.28276 | 20 ft | 13 kts | 162° |
| 2026-05-05 20:40 | 25.79838 | -80.28270 | 20 ft | 8 kts | 176° |
| 2026-05-05 20:40 | 25.79835 | -80.28270 | 20 ft | 0 kts | 176° |